Suzuka, Japan
Current Conditions -  °F | °C
As of 12:00 AM on Sunday 26 Oct 2014 (Local Time) from RJGG Reporting Station
Broken Clouds Broken Clouds  
Wind Chill: 18°   Ceiling: 5000
Heat Index: 18°   Visibility: 6mi
Dew Point: 14°   Wind: 7mph
Humidity: 77%   Direction: 20°NNE
Pressure: 30.15"   Gusts: NA
Location:  34.88°N, 136.58°E
Report Text: RJGG 251500Z 02006KT 9999 FEW020 SCT035 BKN050 18/14 Q1021 NOSIG
Loading
Personal Weather Stations






























Interactive Weather Map
Tropical Storm Tracking
New forecast layout! Learn more

10-Day Weather Forecast

Advertisements
Track Severe Weather on mobile